createdAt,value
2023-05-09T00:00:20.288Z,28.34
2023-05-09T00:02:22.283Z,28.34
2023-05-09T00:04:25.056Z,28.34
2023-05-09T00:06:28.448Z,28.35
2023-05-09T00:08:29.894Z,28.34
2023-05-09T00:10:31.487Z,28.34
2023-05-09T00:12:33.023Z,28.33
2023-05-09T00:14:34.593Z,28.33
2023-05-09T00:16:36.805Z,28.32
2023-05-09T00:18:38.261Z,28.32
2023-05-09T00:20:40.927Z,28.32
2023-05-09T00:22:42.436Z,28.32
2023-05-09T00:24:44.010Z,28.32
2023-05-09T00:26:45.422Z,28.32
2023-05-09T00:28:46.801Z,28.32
2023-05-09T00:30:48.202Z,28.32
2023-05-09T00:32:49.772Z,28.32
2023-05-09T00:34:51.270Z,28.32
2023-05-09T00:36:52.668Z,28.31
2023-05-09T00:38:54.154Z,28.32
2023-05-09T00:40:56.112Z,28.32
2023-05-09T00:42:58.938Z,28.31
2023-05-09T00:45:00.458Z,28.31
2023-05-09T00:47:01.937Z,28.31
2023-05-09T00:49:04.426Z,28.29
2023-05-09T00:51:06.139Z,28.29
2023-05-09T00:53:08.616Z,28.29
2023-05-09T00:55:10.528Z,28.30
2023-05-09T00:57:11.949Z,28.31
2023-05-09T00:59:13.653Z,28.30
2023-05-09T01:01:16.681Z,28.32
2023-05-09T01:03:18.475Z,28.32
2023-05-09T01:05:20.347Z,28.31
2023-05-09T01:07:24.989Z,28.31
2023-05-09T01:09:43.633Z,28.30
2023-05-09T01:12:11.223Z,28.29
2023-05-09T01:14:12.584Z,28.29
2023-05-09T01:16:15.432Z,28.28
2023-05-09T01:18:26.405Z,28.27
2023-05-09T01:20:38.114Z,28.29
2023-05-09T01:22:43.171Z,28.29
2023-05-09T01:24:50.832Z,28.30
2023-05-09T01:27:12.271Z,28.29
2023-05-09T01:29:25.921Z,28.29
2023-05-09T01:31:28.488Z,28.29
2023-05-09T01:33:32.764Z,28.28
2023-05-09T01:35:36.161Z,28.28
2023-05-09T01:37:39.790Z,28.27
2023-05-09T01:39:44.911Z,28.27
2023-05-09T01:41:46.307Z,28.26
2023-05-09T01:43:49.504Z,28.26
2023-05-09T01:45:51.798Z,28.27
2023-05-09T01:47:53.883Z,28.27
2023-05-09T01:49:56.259Z,28.28
2023-05-09T01:51:58.305Z,28.27
2023-05-09T01:54:00.317Z,28.28
2023-05-09T01:56:03.038Z,28.28
2023-05-09T01:58:05.653Z,28.28
2023-05-09T02:00:08.977Z,28.27
2023-05-09T02:02:11.012Z,28.26
2023-05-09T02:04:13.479Z,28.27
2023-05-09T02:06:16.149Z,28.26
2023-05-09T02:08:21.104Z,28.27
2023-05-09T02:10:22.777Z,28.25
2023-05-09T02:12:24.521Z,28.25
2023-05-09T02:14:26.688Z,28.25
2023-05-09T02:16:28.433Z,28.26
2023-05-09T02:18:29.889Z,28.26
2023-05-09T02:20:31.557Z,28.26
2023-05-09T02:22:33.033Z,28.25
2023-05-09T02:24:35.155Z,28.26
2023-05-09T02:26:36.713Z,28.26
2023-05-09T02:28:38.833Z,28.25
2023-05-09T02:30:42.125Z,28.25
2023-05-09T02:32:45.492Z,28.23
2023-05-09T02:34:48.181Z,28.24
2023-05-09T02:36:49.675Z,28.23
2023-05-09T02:38:51.482Z,28.24
2023-05-09T02:40:53.034Z,28.24
2023-05-09T02:42:54.579Z,28.25
2023-05-09T02:44:56.443Z,28.24
2023-05-09T02:46:57.837Z,28.24
2023-05-09T02:48:59.447Z,28.24
2023-05-09T02:51:00.879Z,28.24
2023-05-09T02:53:02.283Z,28.23
2023-05-09T02:55:03.986Z,28.24
2023-05-09T02:57:05.694Z,28.24
2023-05-09T02:59:07.294Z,28.23
2023-05-09T03:01:08.771Z,28.22
2023-05-09T03:03:10.804Z,28.23
2023-05-09T03:05:12.873Z,28.21
2023-05-09T03:07:17.167Z,28.22
2023-05-09T03:09:18.541Z,28.22
2023-05-09T03:11:20.278Z,28.22
2023-05-09T03:13:21.796Z,28.22
2023-05-09T03:15:23.273Z,28.23
2023-05-09T03:17:25.198Z,28.23
2023-05-09T03:19:26.652Z,28.23
2023-05-09T03:21:28.033Z,28.23
2023-05-09T03:23:29.432Z,28.22
2023-05-09T03:25:31.072Z,28.22
2023-05-09T03:27:32.477Z,28.21
2023-05-09T03:29:34.050Z,28.21
2023-05-09T03:31:36.040Z,28.20
2023-05-09T03:33:37.595Z,28.21
2023-05-09T03:35:39.158Z,28.21
2023-05-09T03:37:40.889Z,28.22
2023-05-09T03:39:42.386Z,28.22
2023-05-09T03:41:44.177Z,28.23
2023-05-09T03:43:45.852Z,28.22
2023-05-09T03:45:47.418Z,28.22
2023-05-09T03:47:48.817Z,28.21
2023-05-09T03:49:50.290Z,28.20
2023-05-09T03:51:51.729Z,28.20
2023-05-09T03:53:58.958Z,28.21
2023-05-09T03:56:00.649Z,28.19
2023-05-09T03:58:02.863Z,28.19
2023-05-09T04:00:06.140Z,28.19
2023-05-09T04:02:09.311Z,28.19
2023-05-09T04:04:10.752Z,28.19
2023-05-09T04:06:12.409Z,28.19
2023-05-09T04:08:13.944Z,28.19
2023-05-09T04:10:15.908Z,28.18
2023-05-09T04:12:17.396Z,28.19
2023-05-09T04:14:18.776Z,28.19
2023-05-09T04:16:20.210Z,28.18
2023-05-09T04:18:22.112Z,28.17
2023-05-09T04:20:23.539Z,28.17
2023-05-09T04:22:25.079Z,28.17
2023-05-09T04:24:26.681Z,28.16
2023-05-09T04:26:28.202Z,28.16
2023-05-09T04:28:29.665Z,28.17
2023-05-09T04:30:31.427Z,28.17
2023-05-09T04:32:33.144Z,28.15
2023-05-09T04:34:34.776Z,28.16
2023-05-09T04:36:36.278Z,28.16
2023-05-09T04:38:37.868Z,28.16
2023-05-09T04:40:39.411Z,28.15
2023-05-09T04:42:41.377Z,28.14
2023-05-09T04:44:43.182Z,28.04
2023-05-09T04:46:44.815Z,28.13
2023-05-09T04:48:46.272Z,28.13
2023-05-09T04:50:48.582Z,28.13
2023-05-09T04:52:50.207Z,28.11
2023-05-09T04:54:51.635Z,28.11
2023-05-09T04:56:53.228Z,28.11
2023-05-09T04:58:57.760Z,28.13
2023-05-09T05:00:59.200Z,28.12
2023-05-09T05:03:00.755Z,28.10
2023-05-09T05:05:11.684Z,28.11
2023-05-09T05:07:13.924Z,28.11
2023-05-09T05:09:15.355Z,28.10
2023-05-09T05:11:18.104Z,28.09
2023-05-09T05:13:21.409Z,28.09
2023-05-09T05:15:23.158Z,28.08
2023-05-09T05:17:24.876Z,28.07
2023-05-09T05:19:26.466Z,28.07
2023-05-09T05:21:27.867Z,28.07
2023-05-09T05:23:29.333Z,28.07
2023-05-09T05:25:31.336Z,28.07
2023-05-09T05:27:32.808Z,28.07
2023-05-09T05:29:34.245Z,28.07
2023-05-09T05:31:36.276Z,28.06
2023-05-09T05:33:38.216Z,28.07
2023-05-09T05:35:39.685Z,28.06
2023-05-09T05:37:41.196Z,28.06
2023-05-09T05:39:42.598Z,28.06
2023-05-09T05:41:44.045Z,28.04
2023-05-09T05:43:45.571Z,28.03
2023-05-09T05:45:47.073Z,28.04
2023-05-09T05:47:48.518Z,28.04
2023-05-09T05:49:50.608Z,28.04
2023-05-09T05:51:52.110Z,28.03
2023-05-09T05:53:53.587Z,28.05
2023-05-09T05:55:55.085Z,28.03
2023-05-09T05:57:56.553Z,28.03
2023-05-09T05:59:58.158Z,28.02
2023-05-09T06:01:59.766Z,28.03
2023-05-09T06:04:01.391Z,28.02
2023-05-09T06:06:03.025Z,28.02
2023-05-09T06:08:04.719Z,28.01
2023-05-09T06:10:07.070Z,28.01
2023-05-09T06:12:08.956Z,28.00
2023-05-09T06:14:10.384Z,28.01
2023-05-09T06:16:19.223Z,27.99
2023-05-09T06:18:21.885Z,28.00
2023-05-09T06:20:23.360Z,28.00
2023-05-09T06:22:24.873Z,28.00
2023-05-09T06:24:35.882Z,28.00
2023-05-09T06:26:40.661Z,27.99
2023-05-09T06:28:42.066Z,27.99
2023-05-09T06:30:43.817Z,27.98
2023-05-09T06:32:45.315Z,27.98
2023-05-09T06:34:46.833Z,27.97
2023-05-09T06:36:48.333Z,27.96
2023-05-09T06:38:49.779Z,27.96
2023-05-09T06:40:51.410Z,27.94
2023-05-09T06:42:53.030Z,27.93
2023-05-09T06:44:54.523Z,27.92
2023-05-09T06:46:58.835Z,27.93
2023-05-09T06:49:01.910Z,27.94
2023-05-09T06:51:03.509Z,27.94
2023-05-09T06:53:05.102Z,27.94
2023-05-09T06:55:06.903Z,27.93
2023-05-09T06:57:08.367Z,27.93
2023-05-09T06:59:13.716Z,27.93
2023-05-09T07:01:15.489Z,27.91
2023-05-09T07:03:17.214Z,27.90
2023-05-09T07:05:18.880Z,27.89
2023-05-09T07:07:20.473Z,27.87
2023-05-09T07:09:23.662Z,27.86
2023-05-09T07:11:25.160Z,27.86
2023-05-09T07:13:26.768Z,27.86
2023-05-09T07:15:40.684Z,27.84
2023-05-09T07:17:43.851Z,27.84
2023-05-09T07:19:45.381Z,27.83
2023-05-09T07:21:46.788Z,27.83
2023-05-09T07:23:48.179Z,27.82
2023-05-09T07:25:49.626Z,27.82
2023-05-09T07:27:51.341Z,27.81
2023-05-09T07:29:52.885Z,27.80
2023-05-09T07:31:54.383Z,27.79
2023-05-09T07:33:55.920Z,27.80
2023-05-09T07:36:00.364Z,27.80
2023-05-09T07:38:01.872Z,27.78
2023-05-09T07:40:05.710Z,27.79
2023-05-09T07:42:08.324Z,27.79
2023-05-09T07:44:09.901Z,27.79
2023-05-09T07:46:11.390Z,27.79
2023-05-09T07:48:13.211Z,27.77
2023-05-09T07:50:14.824Z,27.77
2023-05-09T07:52:17.641Z,27.69
2023-05-09T07:54:19.079Z,27.76
2023-05-09T07:56:21.287Z,27.75
2023-05-09T07:58:22.859Z,27.74
2023-05-09T08:00:24.776Z,27.76
2023-05-09T08:02:26.324Z,27.75
2023-05-09T08:04:28.026Z,27.75
2023-05-09T08:06:29.525Z,27.75
2023-05-09T08:08:31.002Z,27.76
2023-05-09T08:10:33.685Z,27.76
2023-05-09T08:12:35.285Z,27.75
2023-05-09T08:14:36.695Z,27.74
2023-05-09T08:16:38.210Z,27.74
2023-05-09T08:18:39.674Z,27.74
2023-05-09T08:20:41.461Z,27.73
2023-05-09T08:22:43.038Z,27.74
2023-05-09T08:24:45.466Z,27.73
2023-05-09T08:26:47.076Z,27.72
2023-05-09T08:28:49.279Z,27.73
2023-05-09T08:30:51.427Z,27.72
2023-05-09T08:32:52.996Z,27.73
2023-05-09T08:34:54.440Z,27.74
2023-05-09T08:36:56.003Z,27.74
2023-05-09T08:38:57.421Z,27.73
2023-05-09T08:41:02.323Z,27.72
2023-05-09T08:43:06.086Z,27.73
2023-05-09T08:45:09.805Z,27.72
2023-05-09T08:47:11.673Z,27.71
2023-05-09T08:49:13.261Z,27.70
2023-05-09T08:51:16.068Z,27.70
2023-05-09T08:53:19.741Z,27.70
2023-05-09T08:55:21.637Z,27.71
2023-05-09T08:57:23.234Z,27.69
2023-05-09T08:59:24.868Z,27.70
2023-05-09T09:01:27.703Z,27.70
2023-05-09T09:03:29.804Z,27.71
2023-05-09T09:07:36.854Z,27.71
2023-05-09T09:09:39.404Z,27.69
2023-05-09T09:11:42.101Z,27.70
2023-05-09T09:13:44.013Z,27.69
2023-05-09T09:15:46.468Z,27.68
2023-05-09T09:17:51.012Z,27.69
2023-05-09T09:19:55.532Z,27.68
2023-05-09T09:21:59.063Z,27.68
2023-05-09T09:24:00.893Z,27.68
2023-05-09T09:26:04.406Z,27.69
2023-05-09T09:28:05.967Z,27.69
2023-05-09T09:30:11.407Z,27.69
2023-05-09T09:32:13.029Z,27.69
2023-05-09T09:34:20.619Z,27.69
2023-05-09T09:36:29.110Z,27.68
2023-05-09T09:38:39.445Z,27.68
2023-05-09T09:40:41.406Z,27.68
2023-05-09T09:42:43.141Z,27.67
2023-05-09T09:44:44.751Z,27.67
2023-05-09T09:46:48.478Z,27.67
2023-05-09T09:48:52.816Z,27.66
2023-05-09T09:50:55.960Z,27.66
2023-05-09T09:52:57.484Z,27.66
2023-05-09T09:54:59.944Z,27.57
2023-05-09T09:57:01.941Z,27.48
2023-05-09T09:59:13.969Z,27.67
2023-05-09T10:01:16.656Z,27.67
2023-05-09T10:03:18.324Z,27.66
2023-05-09T10:05:27.145Z,27.66
2023-05-09T10:07:33.555Z,27.65
2023-05-09T10:09:35.854Z,27.65
2023-05-09T10:11:37.419Z,27.64
2023-05-09T10:13:38.976Z,27.65
2023-05-09T10:15:52.368Z,27.64
2023-05-09T10:17:56.706Z,27.64
2023-05-09T10:20:00.139Z,27.65
2023-05-09T10:22:11.906Z,27.66
2023-05-09T10:24:13.547Z,27.65
2023-05-09T10:26:14.952Z,27.65
2023-05-09T10:28:18.294Z,27.64
2023-05-09T10:30:23.132Z,27.65
2023-05-09T10:32:27.872Z,27.64
2023-05-09T10:34:31.154Z,27.64
2023-05-09T10:36:32.923Z,27.63
2023-05-09T10:38:34.866Z,27.62
2023-05-09T10:40:36.300Z,27.62
2023-05-09T10:42:37.984Z,27.63
2023-05-09T10:44:39.665Z,27.63
2023-05-09T10:46:41.718Z,27.64
2023-05-09T10:48:43.699Z,27.64
2023-05-09T10:50:46.425Z,27.64
2023-05-09T10:53:03.783Z,27.64
2023-05-09T10:55:09.148Z,27.64
2023-05-09T10:57:10.687Z,27.64
2023-05-09T10:59:32.409Z,27.63
2023-05-09T11:01:37.281Z,27.62
2023-05-09T11:04:05.986Z,27.58
2023-05-09T11:06:07.496Z,27.41
2023-05-09T11:08:18.823Z,27.32
2023-05-09T11:10:20.257Z,27.24
2023-05-09T11:12:23.942Z,27.15
2023-05-09T11:14:28.938Z,27.11
2023-05-09T11:16:30.533Z,27.06
2023-05-09T11:18:32.768Z,27.03
2023-05-09T11:20:35.541Z,26.97
2023-05-09T11:22:41.362Z,26.97
2023-05-09T11:24:54.228Z,26.94
2023-05-09T11:26:56.193Z,26.90
2023-05-09T11:28:59.365Z,26.77
2023-05-09T11:31:09.536Z,26.80
2023-05-09T11:33:26.435Z,26.79
2023-05-09T11:35:28.040Z,26.78
2023-05-09T11:37:30.938Z,26.73
2023-05-09T11:39:32.430Z,26.71
2023-05-09T11:41:42.271Z,26.68
2023-05-09T11:43:46.469Z,26.67
2023-05-09T11:45:48.009Z,26.64
2023-05-09T11:47:50.825Z,26.62
2023-05-09T11:49:52.298Z,26.62
2023-05-09T11:51:53.879Z,26.60
2023-05-09T11:53:55.474Z,26.58
2023-05-09T11:55:56.978Z,26.56
2023-05-09T11:57:58.750Z,26.52
2023-05-09T12:00:01.318Z,26.50
2023-05-09T12:02:06.534Z,26.53
2023-05-09T12:04:08.787Z,26.53
2023-05-09T12:06:13.998Z,26.53
2023-05-09T12:08:16.157Z,26.53
2023-05-09T12:10:22.828Z,26.49
2023-05-09T12:12:24.462Z,26.51
2023-05-09T12:14:26.600Z,26.49
2023-05-09T12:16:28.233Z,26.47
2023-05-09T12:18:29.730Z,26.44
2023-05-09T12:20:41.199Z,26.40
2023-05-09T12:22:43.406Z,26.37
2023-05-09T12:24:44.843Z,26.35
2023-05-09T12:26:48.118Z,26.32
2023-05-09T12:28:50.063Z,26.29
2023-05-09T12:30:52.431Z,26.24
2023-05-09T12:32:54.115Z,26.20
2023-05-09T12:34:55.644Z,26.17
2023-05-09T12:36:58.459Z,26.14
2023-05-09T12:38:59.950Z,26.12
2023-05-09T12:41:03.859Z,26.11
2023-05-09T12:43:05.736Z,26.10
2023-05-09T12:45:10.744Z,26.10
2023-05-09T12:47:12.568Z,26.10
2023-05-09T12:49:21.257Z,26.10
2023-05-09T12:51:23.247Z,26.11
2023-05-09T12:53:25.711Z,26.12
2023-05-09T12:55:27.882Z,26.11
2023-05-09T12:57:31.447Z,26.11
2023-05-09T12:59:33.292Z,26.09
2023-05-09T13:01:35.837Z,26.08
2023-05-09T13:03:40.304Z,26.06
2023-05-09T13:05:41.782Z,26.06
2023-05-09T13:07:44.470Z,26.07
2023-05-09T13:09:57.023Z,26.05
2023-05-09T13:11:58.559Z,26.03
2023-05-09T13:14:00.390Z,25.98
2023-05-09T13:16:03.728Z,25.97
2023-05-09T13:18:05.363Z,25.96
2023-05-09T13:20:07.293Z,25.95
2023-05-09T13:22:10.465Z,25.94
2023-05-09T13:24:13.749Z,25.93
2023-05-09T13:26:15.385Z,25.90
2023-05-09T13:28:16.916Z,25.90
2023-05-09T13:30:18.828Z,25.91
2023-05-09T13:32:20.812Z,25.88
2023-05-09T13:34:22.525Z,25.88
2023-05-09T13:36:24.079Z,25.90
2023-05-09T13:38:25.850Z,25.92
2023-05-09T13:40:27.454Z,25.85
2023-05-09T13:42:28.876Z,25.84
2023-05-09T13:44:30.323Z,25.81
2023-05-09T13:46:31.823Z,25.78
2023-05-09T13:48:33.278Z,25.73
2023-05-09T13:50:34.717Z,25.72
2023-05-09T13:52:36.341Z,25.64
2023-05-09T13:54:37.815Z,25.69
2023-05-09T13:56:39.763Z,25.68
2023-05-09T13:58:41.346Z,25.64
2023-05-09T14:00:43.116Z,25.60
2023-05-09T14:02:44.701Z,25.60
2023-05-09T14:04:46.178Z,25.58
2023-05-09T14:06:48.298Z,25.55
2023-05-09T14:08:49.870Z,25.49
2023-05-09T14:10:51.365Z,25.47
2023-05-09T14:12:53.415Z,25.46
2023-05-09T14:14:54.898Z,25.45
2023-05-09T14:16:56.715Z,25.42
2023-05-09T14:18:58.443Z,25.41
2023-05-09T14:20:59.895Z,25.40
2023-05-09T14:23:01.568Z,25.40
2023-05-09T14:25:03.054Z,25.42
2023-05-09T14:27:04.498Z,25.41
2023-05-09T14:29:06.385Z,25.41
2023-05-09T14:31:08.074Z,25.43
2023-05-09T14:33:09.593Z,25.46
2023-05-09T14:35:11.279Z,25.49
2023-05-09T14:37:15.628Z,25.45
2023-05-09T14:39:17.280Z,25.48
2023-05-09T14:41:21.328Z,25.50
2023-05-09T14:43:23.380Z,25.32
2023-05-09T14:45:25.260Z,25.51
2023-05-09T14:47:26.818Z,25.49
2023-05-09T14:49:28.596Z,25.45
2023-05-09T14:51:31.417Z,25.40
2023-05-09T14:53:35.419Z,25.39
2023-05-09T14:55:37.334Z,25.37
2023-05-09T14:57:38.870Z,25.38
2023-05-09T14:59:40.294Z,25.38
2023-05-09T15:01:41.952Z,25.39
2023-05-09T15:03:43.521Z,25.39
2023-05-09T15:05:45.048Z,25.38
2023-05-09T15:07:46.556Z,25.33
2023-05-09T15:09:48.228Z,25.32
2023-05-09T15:11:49.732Z,25.27
2023-05-09T15:13:53.116Z,25.21
2023-05-09T15:15:54.696Z,25.19
2023-05-09T15:17:56.717Z,25.16
2023-05-09T15:19:58.234Z,25.11
2023-05-09T15:21:59.944Z,25.09
2023-05-09T15:24:02.224Z,25.06
2023-05-09T15:26:04.078Z,25.02
2023-05-09T15:28:06.947Z,25.02
2023-05-09T15:30:08.838Z,25.03
2023-05-09T15:32:10.327Z,25.00
2023-05-09T15:34:11.798Z,25.00
2023-05-09T15:36:13.537Z,24.98
2023-05-09T15:38:15.449Z,24.99
2023-05-09T15:40:17.201Z,24.97
2023-05-09T15:42:19.262Z,24.94
2023-05-09T15:44:20.886Z,24.92
2023-05-09T15:46:22.331Z,24.92
2023-05-09T15:48:24.777Z,24.94
2023-05-09T15:50:26.324Z,24.94
2023-05-09T15:52:27.876Z,24.94
2023-05-09T15:54:29.650Z,24.97
2023-05-09T15:56:31.210Z,25.00
2023-05-09T15:58:32.762Z,24.99
2023-05-09T16:00:34.420Z,25.02
2023-05-09T16:02:36.154Z,25.03
2023-05-09T16:04:38.392Z,25.02
2023-05-09T16:06:40.500Z,25.00
2023-05-09T16:08:42.036Z,24.99
2023-05-09T16:10:43.751Z,25.00
2023-05-09T16:12:45.313Z,25.00
2023-05-09T16:14:47.740Z,24.99
2023-05-09T16:16:50.493Z,24.97
2023-05-09T16:18:52.088Z,24.96
2023-05-09T16:20:53.617Z,24.95
2023-05-09T16:22:55.253Z,24.95
2023-05-09T16:24:56.803Z,24.95
2023-05-09T16:26:58.543Z,24.96
2023-05-09T16:29:01.177Z,24.97
2023-05-09T16:31:04.820Z,24.97
2023-05-09T16:33:06.604Z,24.96
2023-05-09T16:35:08.358Z,24.92
2023-05-09T16:37:09.877Z,24.90
2023-05-09T16:39:11.423Z,24.89
2023-05-09T16:41:13.089Z,24.88
2023-05-09T16:43:16.382Z,24.87
2023-05-09T16:45:17.876Z,24.82
2023-05-09T16:47:19.347Z,24.82
2023-05-09T16:49:20.824Z,24.82
2023-05-09T16:51:22.338Z,24.80
2023-05-09T16:53:24.492Z,24.75
2023-05-09T16:55:27.312Z,24.74
2023-05-09T16:57:28.959Z,24.77
2023-05-09T16:59:30.772Z,24.78
2023-05-09T17:01:32.678Z,24.81
2023-05-09T17:03:34.261Z,24.81
2023-05-09T17:05:35.727Z,24.82
2023-05-09T17:07:37.228Z,24.85
2023-05-09T17:09:38.869Z,24.87
2023-05-09T17:11:40.311Z,24.89
2023-05-09T17:13:42.964Z,24.89
2023-05-09T17:15:44.394Z,24.92
2023-05-09T17:17:47.386Z,24.93
2023-05-09T17:19:48.827Z,24.92
2023-05-09T17:21:50.297Z,24.91
2023-05-09T17:23:53.901Z,24.89
2023-05-09T17:25:55.568Z,24.88
2023-05-09T17:27:57.164Z,24.87
2023-05-09T17:29:58.630Z,24.90
2023-05-09T17:32:03.177Z,24.90
2023-05-09T17:34:05.673Z,24.91
2023-05-09T17:36:07.422Z,24.90
2023-05-09T17:38:08.988Z,24.90
2023-05-09T17:40:10.694Z,24.90
2023-05-09T17:42:12.664Z,24.88
2023-05-09T17:44:14.497Z,24.90
2023-05-09T17:46:16.056Z,24.94
2023-05-09T17:48:18.185Z,24.95
2023-05-09T17:50:20.778Z,24.98
2023-05-09T17:52:22.328Z,25.00
2023-05-09T17:54:26.720Z,25.01
2023-05-09T17:56:28.193Z,24.99
2023-05-09T17:58:29.972Z,25.00
2023-05-09T18:00:32.422Z,24.99
2023-05-09T18:02:33.940Z,24.99
2023-05-09T18:04:35.808Z,24.98
2023-05-09T18:06:37.306Z,24.95
2023-05-09T18:08:38.698Z,24.94
2023-05-09T18:10:41.114Z,24.91
2023-05-09T18:12:45.093Z,24.88
2023-05-09T18:14:47.675Z,24.88
2023-05-09T18:16:49.390Z,24.90
2023-05-09T18:18:50.895Z,24.88
2023-05-09T18:20:52.315Z,24.87
2023-05-09T18:22:54.374Z,24.87
2023-05-09T18:24:56.135Z,24.85
2023-05-09T18:26:57.962Z,24.85
2023-05-09T18:28:59.371Z,24.85
2023-05-09T18:31:01.315Z,24.85
2023-05-09T18:33:03.084Z,24.84
2023-05-09T18:35:05.560Z,24.84
2023-05-09T18:37:07.588Z,24.83
2023-05-09T18:39:11.593Z,24.81
2023-05-09T18:41:13.719Z,24.77
2023-05-09T18:43:16.955Z,24.74
2023-05-09T18:45:18.569Z,24.74
2023-05-09T18:47:20.078Z,24.76
2023-05-09T18:49:24.779Z,24.76
2023-05-09T18:51:26.342Z,24.79
2023-05-09T18:53:28.808Z,24.79
2023-05-09T18:55:30.664Z,24.74
2023-05-09T18:57:33.880Z,24.72
2023-05-09T18:59:35.416Z,24.71
2023-05-09T19:01:37.856Z,24.71
2023-05-09T19:03:45.755Z,24.65
2023-05-09T19:05:47.480Z,24.72
2023-05-09T19:07:48.991Z,24.75
2023-05-09T19:09:50.603Z,24.76
2023-05-09T19:11:52.311Z,24.76
2023-05-09T19:13:54.139Z,24.77
2023-05-09T19:15:55.793Z,24.75
2023-05-09T19:17:57.447Z,24.75
2023-05-09T19:20:00.924Z,24.73
2023-05-09T19:22:02.487Z,24.70
2023-05-09T19:24:04.685Z,24.68
2023-05-09T19:26:06.214Z,24.67
2023-05-09T19:28:07.833Z,24.65
2023-05-09T19:30:09.499Z,24.62
2023-05-09T19:32:11.319Z,24.61
2023-05-09T19:34:13.540Z,24.60
2023-05-09T19:36:15.299Z,24.59
2023-05-09T19:38:17.412Z,24.57
2023-05-09T19:40:19.208Z,24.58
2023-05-09T19:42:21.453Z,24.58
2023-05-09T19:44:22.922Z,24.56
2023-05-09T19:46:24.662Z,24.55
2023-05-09T19:48:26.518Z,24.52
2023-05-09T19:50:28.049Z,24.52
2023-05-09T19:52:32.308Z,24.51
2023-05-09T19:54:33.790Z,24.50
2023-05-09T19:56:35.200Z,24.47
2023-05-09T19:58:36.772Z,24.45
2023-05-09T20:00:38.872Z,24.46
2023-05-09T20:02:40.607Z,24.49
2023-05-09T20:04:46.951Z,24.29
2023-05-09T20:06:48.657Z,24.48
2023-05-09T20:08:51.999Z,24.49
2023-05-09T20:10:53.918Z,24.39
2023-05-09T20:12:58.135Z,24.49
2023-05-09T20:14:59.590Z,24.52
2023-05-09T20:17:01.520Z,24.55
2023-05-09T20:19:05.144Z,24.60
2023-05-09T20:21:09.708Z,24.64
2023-05-09T20:23:11.285Z,24.69
2023-05-09T20:25:13.557Z,24.73
2023-05-09T20:27:14.971Z,24.77
2023-05-09T20:29:16.484Z,24.80
2023-05-09T20:31:17.925Z,24.83
2023-05-09T20:33:19.365Z,24.85
2023-05-09T20:35:20.825Z,24.89
2023-05-09T20:37:22.262Z,24.90
2023-05-09T20:39:24.706Z,24.93
2023-05-09T20:41:26.369Z,24.95
2023-05-09T20:43:28.426Z,24.95
2023-05-09T20:45:30.945Z,24.97
2023-05-09T20:47:32.531Z,24.98
2023-05-09T20:49:34.011Z,25.00
2023-05-09T20:51:35.477Z,25.00
2023-05-09T20:53:37.700Z,25.00
2023-05-09T20:55:39.334Z,25.01
2023-05-09T20:57:40.789Z,25.04
2023-05-09T20:59:42.469Z,25.05
2023-05-09T21:01:44.012Z,25.06
2023-05-09T21:03:45.651Z,25.07
2023-05-09T21:05:47.172Z,25.06
2023-05-09T21:07:48.724Z,25.04
2023-05-09T21:09:50.821Z,25.00
2023-05-09T21:11:52.459Z,24.97
2023-05-09T21:13:54.097Z,24.95
2023-05-09T21:15:55.691Z,24.92
2023-05-09T21:17:57.224Z,24.89
2023-05-09T21:19:58.766Z,24.89
2023-05-09T21:22:00.377Z,24.88
2023-05-09T21:24:08.843Z,24.88
2023-05-09T21:26:10.348Z,24.88
2023-05-09T21:28:11.861Z,24.89
2023-05-09T21:30:13.426Z,24.95
2023-05-09T21:32:16.632Z,25.00
2023-05-09T21:34:18.805Z,25.00
2023-05-09T21:36:20.285Z,25.00
2023-05-09T21:38:21.859Z,24.91
2023-05-09T21:40:23.331Z,24.83
2023-05-09T21:42:24.819Z,24.83
2023-05-09T21:44:26.355Z,24.85
2023-05-09T21:46:27.937Z,24.84
2023-05-09T21:48:29.535Z,24.82
2023-05-09T21:50:31.214Z,24.80
2023-05-09T21:52:32.856Z,24.78
2023-05-09T21:54:34.298Z,24.76
2023-05-09T21:56:35.808Z,24.71
2023-05-09T21:58:37.575Z,24.68
2023-05-09T22:00:38.958Z,24.67
2023-05-09T22:02:42.533Z,24.68
2023-05-09T22:04:44.210Z,24.66
2023-05-09T22:06:45.629Z,24.63
2023-05-09T22:08:47.290Z,24.64
2023-05-09T22:10:48.873Z,24.65
2023-05-09T22:12:50.309Z,24.70
2023-05-09T22:14:56.277Z,24.79
2023-05-09T22:16:58.742Z,24.87
2023-05-09T22:19:00.156Z,24.94
2023-05-09T22:21:01.699Z,24.97
2023-05-09T22:23:03.418Z,25.01
2023-05-09T22:25:05.031Z,25.04
2023-05-09T22:27:06.871Z,25.06
2023-05-09T22:29:08.587Z,25.07
2023-05-09T22:31:10.529Z,25.07
2023-05-09T22:33:12.050Z,25.08
2023-05-09T22:35:13.625Z,25.08
2023-05-09T22:37:15.210Z,25.10
2023-05-09T22:39:16.822Z,25.11
2023-05-09T22:41:18.381Z,25.12
2023-05-09T22:43:20.361Z,25.12
2023-05-09T22:45:22.166Z,25.14
2023-05-09T22:47:23.639Z,25.15
2023-05-09T22:49:25.138Z,25.16
2023-05-09T22:51:27.705Z,25.17
2023-05-09T22:53:29.444Z,25.17
2023-05-09T22:55:30.912Z,25.17
2023-05-09T22:57:32.453Z,25.19
2023-05-09T22:59:34.389Z,25.18
2023-05-09T23:01:36.322Z,25.18
2023-05-09T23:03:38.095Z,25.20
2023-05-09T23:05:39.685Z,25.21
2023-05-09T23:07:41.364Z,25.23
2023-05-09T23:09:42.921Z,25.22
2023-05-09T23:11:44.358Z,25.24
2023-05-09T23:13:45.777Z,25.23
2023-05-09T23:15:48.105Z,25.24
2023-05-09T23:17:49.661Z,25.26
2023-05-09T23:19:51.194Z,25.24
2023-05-09T23:21:53.133Z,25.25
2023-05-09T23:23:54.939Z,25.26
2023-05-09T23:25:56.599Z,25.25
2023-05-09T23:27:58.105Z,25.26
2023-05-09T23:29:59.553Z,25.27
2023-05-09T23:32:01.054Z,25.28
2023-05-09T23:34:02.550Z,25.28
2023-05-09T23:36:04.349Z,25.29
2023-05-09T23:38:05.839Z,25.30
2023-05-09T23:40:07.682Z,25.32
2023-05-09T23:42:09.089Z,25.31
2023-05-09T23:44:11.065Z,25.32
2023-05-09T23:46:12.665Z,25.31
2023-05-09T23:48:14.220Z,25.32
2023-05-09T23:50:15.898Z,25.30
2023-05-09T23:52:17.422Z,25.32
2023-05-09T23:54:21.239Z,25.32
2023-05-09T23:56:22.891Z,25.33
2023-05-09T23:58:24.676Z,25.34
